Time;durP1;ratioP1;P1;durP2;ratioP2;P2;SDS_P1;SDS_P2;PMS_P1;PMS_P2;Temp;Humidity;BMP_temperature;BMP_pressure;BME280_temperature;BME280_humidity;BME280_pressure;Samples;Min_cycle;Max_cycle;Signal;HPM_P1;HPM_P2
2024/01/26 00:02:06;;;;;;;58.58;40.45;;;;;;;5.96;100.00;99242.50;5009217;28;20029;-71
2024/01/26 00:04:32;;;;;;;62.10;39.70;;;;;;;6.03;100.00;99235.19;5013516;28;20025;-68
2024/01/26 00:06:57;;;;;;;57.28;38.22;;;;;;;6.00;100.00;99235.38;5014864;28;20021;-72
2024/01/26 00:09:25;;;;;;;59.05;39.45;;;;;;;6.07;100.00;99241.81;5014632;28;20070;-70
2024/01/26 00:11:50;;;;;;;56.08;39.38;;;;;;;5.69;100.00;99189.13;5012822;28;20513;-71
2024/01/26 00:14:16;;;;;;;59.90;39.67;;;;;;;5.86;100.00;99218.16;4996346;28;20037;-73
2024/01/26 00:16:41;;;;;;;62.38;40.33;;;;;;;5.94;100.00;99239.97;5018406;28;20428;-75
2024/01/26 00:19:09;;;;;;;63.53;39.90;;;;;;;6.02;100.00;99236.94;5000723;28;20025;-67
2024/01/26 00:21:39;;;;;;;57.95;39.33;;;;;;;5.99;100.00;99239.72;5011015;28;20111;-69
2024/01/26 00:24:05;;;;;;;58.40;38.92;;;;;;;6.08;100.00;99233.16;5001032;28;20025;-71
2024/01/26 00:26:33;;;;;;;55.08;38.60;;;;;;;6.05;100.00;99235.91;5016523;28;20037;-75
2024/01/26 00:29:01;;;;;;;61.15;41.17;;;;;;;6.05;100.00;99234.16;5005871;28;20030;-71
2024/01/26 00:31:26;;;;;;;59.17;39.85;;;;;;;5.85;100.00;99182.97;5007055;28;20045;-71
2024/01/26 00:33:52;;;;;;;56.85;37.42;;;;;;;6.05;100.00;99208.34;4993541;28;20037;-68
2024/01/26 00:36:17;;;;;;;55.95;38.30;;;;;;;6.05;100.00;99205.75;5000859;28;20148;-69
2024/01/26 00:38:45;;;;;;;53.55;38.75;;;;;;;5.94;100.00;99205.59;5013220;28;20056;-72
2024/01/26 00:41:15;;;;;;;57.47;40.08;;;;;;;5.43;100.00;99161.63;5014060;28;20047;-68
2024/01/26 00:43:41;;;;;;;57.40;38.55;;;;;;;5.51;100.00;99167.94;5053032;28;20160;-71
2024/01/26 00:46:06;;;;;;;60.72;38.15;;;;;;;5.72;100.00;99219.09;5015099;28;20025;-70
2024/01/26 00:48:31;;;;;;;57.17;38.67;;;;;;;5.66;100.00;99209.97;4994364;28;20117;-72
2024/01/26 00:50:59;;;;;;;54.80;38.35;;;;;;;5.63;100.00;99217.09;4997550;28;20025;-71
2024/01/26 00:53:25;;;;;;;59.70;39.72;;;;;;;5.47;100.00;99214.66;5015100;28;20678;-66
2024/01/26 00:55:50;;;;;;;53.17;37.33;;;;;;;5.49;100.00;99225.69;4999955;28;20025;-68
2024/01/26 00:58:16;;;;;;;63.65;38.88;;;;;;;5.49;100.00;99220.53;5006574;28;20155;-76
2024/01/26 01:00:41;;;;;;;59.97;39.17;;;;;;;5.19;100.00;99170.00;5000814;28;20029;-70
2024/01/26 01:03:08;;;;;;;58.55;38.40;;;;;;;5.49;100.00;99220.53;4996249;28;20120;-72
2024/01/26 01:05:36;;;;;;;58.95;39.20;;;;;;;5.55;100.00;99212.44;5017649;28;20136;-72
2024/01/26 01:08:01;;;;;;;57.38;39.50;;;;;;;5.56;100.00;99217.47;5012314;28;20021;-69
2024/01/26 01:10:27;;;;;;;56.63;37.33;;;;;;;5.12;100.00;99169.53;5016456;28;20029;-71
2024/01/26 01:12:54;;;;;;;56.35;38.83;;;;;;;5.36;100.00;99223.88;5003128;28;20104;-73
2024/01/26 01:15:23;;;;;;;59.70;39.28;;;;;;;5.32;100.00;99219.84;4997226;28;20759;-71
2024/01/26 01:17:53;;;;;;;56.70;37.78;;;;;;;5.46;100.00;99225.88;5049363;28;20108;-70
2024/01/26 01:20:21;;;;;;;59.80;38.63;;;;;;;5.45;100.00;99224.25;5014669;28;20044;-69
2024/01/26 01:22:47;;;;;;;60.33;38.50;;;;;;;5.30;100.00;99229.44;5028590;28;20025;-66
2024/01/26 01:25:13;;;;;;;59.03;36.95;;;;;;;5.18;100.00;99225.91;5016065;28;20490;-71
2024/01/26 01:27:38;;;;;;;53.03;36.67;;;;;;;5.24;100.00;99227.25;4999381;28;20037;-73
2024/01/26 01:30:05;;;;;;;58.22;38.90;;;;;;;5.27;100.00;99233.97;5005973;28;20022;-72
2024/01/26 01:32:30;;;;;;;60.00;39.08;;;;;;;5.28;100.00;99235.63;4999465;28;20037;-67
2024/01/26 01:34:56;;;;;;;55.08;37.08;;;;;;;5.13;100.00;99225.34;5018921;28;20032;-69
2024/01/26 01:37:26;;;;;;;56.53;36.42;;;;;;;5.07;100.00;99230.03;5013664;28;20106;-67
2024/01/26 01:39:51;;;;;;;50.30;34.47;;;;;;;5.07;100.00;99225.72;5014178;28;20027;-67
2024/01/26 01:42:17;;;;;;;52.42;34.55;;;;;;;5.00;100.00;99217.53;4989287;28;20038;-68
2024/01/26 01:44:46;;;;;;;51.38;33.22;;;;;;;4.89;100.00;99235.41;5018984;28;20068;-66
2024/01/26 01:47:13;;;;;;;50.30;33.53;;;;;;;4.88;100.00;99240.66;5016598;28;20033;-73
2024/01/26 01:49:39;;;;;;;47.85;32.85;;;;;;;4.43;100.00;99178.94;4997887;28;20141;-72
2024/01/26 01:52:08;;;;;;;51.70;33.45;;;;;;;4.72;100.00;99233.84;4997711;28;20582;-71
2024/01/26 01:54:33;;;;;;;50.63;33.55;;;;;;;4.72;100.00;99233.84;4995463;28;20029;-73
2024/01/26 01:57:01;;;;;;;49.25;32.80;;;;;;;4.59;100.00;99230.34;5016941;28;20063;-70
2024/01/26 01:59:27;;;;;;;49.03;33.17;;;;;;;4.55;100.00;99240.00;4994003;28;20025;-72
2024/01/26 02:01:52;;;;;;;47.97;31.75;;;;;;;4.27;100.00;99197.06;5015140;28;20579;-66
2024/01/26 02:04:27;;;;;;;51.20;32.92;;;;;;;4.48;100.00;99228.41;5011047;28;20054;-69
2024/01/26 02:06:58;;;;;;;50.05;33.35;;;;;;;4.39;100.00;99227.19;5024708;28;20039;-67
2024/01/26 02:09:24;;;;;;;47.03;31.85;;;;;;;4.38;100.00;99235.00;4999909;28;20026;-72
2024/01/26 02:11:53;;;;;;;46.08;30.77;;;;;;;4.40;100.00;99238.34;5029045;28;20033;-77
2024/01/26 02:14:21;;;;;;;50.60;31.25;;;;;;;4.31;100.00;99241.44;5035058;28;20029;-71
2024/01/26 02:17:03;;;;;;;48.63;32.20;;;;;;;4.30;100.00;99232.06;5004204;28;20507;-69
2024/01/26 02:19:32;;;;;;;49.42;31.65;;;;;;;4.03;100.00;99186.41;5032123;28;20017;-70
2024/01/26 02:21:58;;;;;;;45.50;31.70;;;;;;;4.21;100.00;99231.69;5013856;28;20415;-69
2024/01/26 02:24:23;;;;;;;45.70;30.88;;;;;;;4.11;100.00;99204.00;4997626;28;20025;-69
2024/01/26 02:26:49;;;;;;;53.50;30.15;;;;;;;4.20;100.00;99226.66;5011791;28;20034;-70
2024/01/26 02:29:14;;;;;;;48.53;32.30;;;;;;;4.22;100.00;99233.34;5010290;28;20157;-74
2024/01/26 02:31:40;;;;;;;52.72;31.30;;;;;;;4.21;100.00;99225.72;5008092;28;20045;-73
2024/01/26 02:34:06;;;;;;;48.83;31.15;;;;;;;4.13;100.00;99225.34;5008582;28;20960;-75
2024/01/26 02:36:36;;;;;;;47.97;31.90;;;;;;;3.77;100.00;99198.22;5012280;28;20036;-70
2024/01/26 02:39:05;;;;;;;47.45;30.00;;;;;;;3.97;100.00;99233.94;4996215;28;20052;-70
2024/01/26 02:41:31;;;;;;;49.75;28.90;;;;;;;3.85;100.00;99212.31;5014545;28;20490;-75
2024/01/26 02:43:56;;;;;;;46.80;31.13;;;;;;;3.97;100.00;99223.63;5041220;28;20037;-71
2024/01/26 02:46:21;;;;;;;44.25;29.08;;;;;;;3.70;100.00;99189.19;5012110;28;20033;-70
2024/01/26 02:48:47;;;;;;;44.00;29.15;;;;;;;3.93;100.00;99222.16;5016618;28;20452;-67
2024/01/26 02:51:12;;;;;;;44.88;28.13;;;;;;;3.98;100.00;99222.72;5010042;28;20028;-71
2024/01/26 02:53:45;;;;;;;47.50;29.80;;;;;;;3.89;100.00;99219.84;4996777;28;20172;-67
2024/01/26 02:56:13;;;;;;;43.08;28.70;;;;;;;3.81;100.00;99215.13;5011346;28;20136;-72
2024/01/26 02:58:40;;;;;;;44.08;29.00;;;;;;;3.68;100.00;99227.84;5010569;28;20036;-71
2024/01/26 03:01:06;;;;;;;46.95;30.58;;;;;;;3.75;100.00;99226.59;5009728;28;20487;-72
2024/01/26 03:03:34;;;;;;;45.08;29.10;;;;;;;3.69;100.00;99232.09;5006069;28;20075;-73
2024/01/26 03:06:00;;;;;;;46.22;29.73;;;;;;;3.58;100.00;99219.84;5010366;28;20030;-73
2024/01/26 03:08:27;;;;;;;45.35;29.30;;;;;;;3.63;100.00;99235.84;5021445;28;20449;-72
2024/01/26 03:10:53;;;;;;;49.10;28.42;;;;;;;3.65;100.00;99248.59;5004303;28;20455;-69
2024/01/26 03:13:19;;;;;;;42.42;29.23;;;;;;;3.54;100.00;99220.94;5050548;28;20113;-68
2024/01/26 03:15:49;;;;;;;44.72;28.70;;;;;;;3.49;100.00;99243.50;5017020;28;20136;-70
2024/01/26 03:18:19;;;;;;;48.00;30.15;;;;;;;3.37;100.00;99223.59;5014951;28;20101;-74
2024/01/26 03:20:47;;;;;;;50.83;30.38;;;;;;;3.45;100.00;99235.13;5006406;28;20484;-75
2024/01/26 03:23:15;;;;;;;42.90;28.20;;;;;;;3.11;100.00;99171.06;5013222;28;20036;-75
2024/01/26 03:25:43;;;;;;;44.35;28.58;;;;;;;3.46;100.00;99229.03;4992974;28;20113;-72
2024/01/26 03:28:08;;;;;;;45.92;28.52;;;;;;;3.14;100.00;99211.97;5015234;28;20030;-72
2024/01/26 03:30:34;;;;;;;47.92;31.02;;;;;;;3.34;100.00;99228.88;5020322;28;20495;-71
2024/01/26 03:33:02;;;;;;;49.63;30.75;;;;;;;3.46;100.00;99238.50;5001764;28;20156;-74
2024/01/26 03:35:30;;;;;;;47.70;29.95;;;;;;;3.37;100.00;99223.59;5028979;28;20036;-69
2024/01/26 03:37:55;;;;;;;44.50;28.73;;;;;;;3.44;100.00;99238.59;4994149;28;20144;-70
2024/01/26 03:40:22;;;;;;;50.53;30.95;;;;;;;3.15;100.00;99183.63;5014902;28;20039;-67
2024/01/26 03:42:47;;;;;;;44.75;29.48;;;;;;;3.38;100.00;99231.22;5014134;28;20059;-70
2024/01/26 03:45:13;;;;;;;48.85;30.95;;;;;;;3.34;100.00;99232.31;5016242;28;20423;-71
2024/01/26 03:47:40;;;;;;;53.58;30.67;;;;;;;3.30;100.00;99224.84;5000879;28;20029;-72
2024/01/26 03:50:06;;;;;;;47.67;30.92;;;;;;;3.37;100.00;99247.53;4998940;28;20021;-76
2024/01/26 03:52:32;;;;;;;49.00;30.85;;;;;;;3.10;100.00;99190.75;5001064;28;20774;-70
2024/01/26 03:55:01;;;;;;;46.08;30.00;;;;;;;3.35;100.00;99233.94;5013739;28;20029;-68
2024/01/26 03:57:26;;;;;;;47.53;30.23;;;;;;;3.30;100.00;99233.38;4997731;28;20041;-75
2024/01/26 03:59:52;;;;;;;48.90;29.33;;;;;;;3.41;100.00;99235.34;5017728;28;20083;-70
2024/01/26 04:02:25;;;;;;;45.88;29.90;;;;;;;3.41;100.00;99240.50;5019608;28;20957;-70
2024/01/26 04:04:51;;;;;;;49.08;30.73;;;;;;;3.09;100.00;99219.94;5013373;28;20052;-68
2024/01/26 04:07:16;;;;;;;45.78;30.27;;;;;;;3.34;100.00;99249.44;4995391;28;20570;-68
2024/01/26 04:09:42;;;;;;;45.20;29.48;;;;;;;3.04;100.00;99194.50;4998743;28;20897;-74
2024/01/26 04:12:09;;;;;;;49.40;30.92;;;;;;;2.89;100.00;99185.88;5000448;28;20112;-70
2024/01/26 04:14:36;;;;;;;50.25;30.80;;;;;;;3.37;100.00;99241.59;5016484;28;20034;-69
2024/01/26 04:17:04;;;;;;;47.55;29.45;;;;;;;3.43;100.00;99228.38;5007799;28;20701;-70
2024/01/26 04:19:29;;;;;;;44.72;30.15;;;;;;;3.47;100.00;99232.47;5006622;28;20107;-71
2024/01/26 04:21:54;;;;;;;47.72;29.90;;;;;;;3.36;100.00;99234.78;5018872;28;20037;-71
2024/01/26 04:24:20;;;;;;;47.78;29.92;;;;;;;3.13;100.00;99229.16;5018294;28;20120;-73
2024/01/26 04:26:47;;;;;;;50.95;30.58;;;;;;;3.19;100.00;99238.25;5000792;28;21235;-74
2024/01/26 04:29:13;;;;;;;48.80;30.67;;;;;;;3.18;100.00;99241.75;5028280;28;20063;-70
2024/01/26 04:31:44;;;;;;;50.15;31.20;;;;;;;3.22;100.00;99231.22;5014467;28;20446;-76
2024/01/26 04:34:10;;;;;;;49.20;30.02;;;;;;;3.07;100.00;99226.91;5026255;28;20120;-68
2024/01/26 04:36:35;;;;;;;48.20;30.00;;;;;;;3.08;100.00;99237.13;5008479;28;20037;-72
2024/01/26 04:39:03;;;;;;;45.70;29.65;;;;;;;3.21;100.00;99242.44;5001675;28;20045;-71
2024/01/26 04:41:29;;;;;;;48.35;29.42;;;;;;;3.04;100.00;99245.06;5008532;28;20025;-76
2024/01/26 04:43:56;;;;;;;45.83;29.02;;;;;;;2.96;100.00;99248.03;5009904;28;20461;-68
2024/01/26 04:46:22;;;;;;;49.03;30.42;;;;;;;2.74;100.00;99214.09;4997891;28;20518;-68
2024/01/26 04:48:47;;;;;;;48.03;29.30;;;;;;;3.08;100.00;99251.69;4997667;28;20120;-72
2024/01/26 04:51:15;;;;;;;70.43;39.58;;;;;;;2.97;100.00;99259.94;5017656;28;20610;-68
2024/01/26 04:53:40;;;;;;;133.40;72.78;;;;;;;3.05;100.00;99260.41;5016266;28;20742;-72
2024/01/26 04:56:09;;;;;;;148.63;80.85;;;;;;;3.00;100.00;99249.53;5047722;28;20026;-69
2024/01/26 04:58:37;;;;;;;126.72;70.45;;;;;;;2.87;100.00;99217.69;5028627;28;20038;-67
2024/01/26 05:01:02;;;;;;;108.75;64.10;;;;;;;3.03;100.00;99245.94;5020322;28;20566;-66
2024/01/26 05:03:28;;;;;;;95.55;57.22;;;;;;;3.11;100.00;99256.66;5030708;28;20040;-70
2024/01/26 05:05:53;;;;;;;80.22;47.63;;;;;;;2.96;100.00;99255.75;5019570;28;20563;-71
2024/01/26 05:08:19;;;;;;;56.65;34.60;;;;;;;2.81;100.00;99247.09;5004140;28;20030;-73
2024/01/26 05:10:44;;;;;;;54.35;32.92;;;;;;;2.96;100.00;99258.31;5015496;28;20044;-71
2024/01/26 05:13:12;;;;;;;48.40;30.92;;;;;;;2.92;100.00;99267.09;5040872;28;20044;-73
2024/01/26 05:15:37;;;;;;;45.05;29.70;;;;;;;2.89;100.00;99262.94;5016469;28;20117;-70
2024/01/26 05:18:03;;;;;;;46.03;29.52;;;;;;;2.66;100.00;99225.59;5010913;28;20029;-71
2024/01/26 05:20:29;;;;;;;48.95;30.05;;;;;;;3.08;100.00;99273.09;4998176;28;20472;-69
2024/01/26 05:22:54;;;;;;;47.25;29.35;;;;;;;3.11;100.00;99273.84;5017916;28;20037;-65
2024/01/26 05:25:20;;;;;;;43.95;29.00;;;;;;;2.98;100.00;99273.66;5011291;28;20033;-73
2024/01/26 05:27:47;;;;;;;47.45;28.95;;;;;;;3.13;100.00;99279.72;5017755;28;20033;-73
2024/01/26 05:30:18;;;;;;;47.65;29.95;;;;;;;2.85;100.00;99207.50;4995845;28;20136;-76
2024/01/26 05:32:48;;;;;;;44.88;29.45;;;;;;;3.09;100.00;99266.19;5000963;28;20108;-70
2024/01/26 05:35:13;;;;;;;49.10;32.25;;;;;;;3.06;100.00;99253.50;4996312;28;20041;-69
2024/01/26 05:37:39;;;;;;;50.95;32.28;;;;;;;3.21;100.00;99250.13;5013622;28;20168;-77
2024/01/26 05:40:07;;;;;;;46.10;30.63;;;;;;;2.87;100.00;99221.09;5011108;28;20037;-71
2024/01/26 05:42:35;;;;;;;51.22;30.80;;;;;;;2.88;100.00;99245.03;5013997;28;20053;-76
2024/01/26 05:45:02;;;;;;;50.10;32.40;;;;;;;2.98;100.00;99278.78;5011771;28;20049;-70
2024/01/26 05:47:28;;;;;;;47.30;29.48;;;;;;;3.08;100.00;99274.81;5021896;28;20107;-69
2024/01/26 05:49:53;;;;;;;49.13;30.38;;;;;;;3.07;100.00;99293.72;4999416;28;20025;-72
2024/01/26 05:52:21;;;;;;;47.38;30.00;;;;;;;3.09;100.00;99291.91;5000725;28;20124;-72
2024/01/26 05:54:49;;;;;;;48.35;30.05;;;;;;;3.13;100.00;99297.72;4995090;28;20091;-69
2024/01/26 05:57:15;;;;;;;48.55;29.48;;;;;;;3.11;100.00;99309.81;5017093;28;20029;-68
2024/01/26 05:59:41;;;;;;;43.95;28.98;;;;;;;2.44;100.00;99218.16;4998264;28;20494;-70
2024/01/26 06:02:07;;;;;;;48.28;29.63;;;;;;;2.98;100.00;99281.34;4999798;28;20030;-71
2024/01/26 06:04:32;;;;;;;45.70;29.60;;;;;;;2.70;100.00;99239.09;5015444;28;20030;-71
2024/01/26 06:07:05;;;;;;;49.80;31.05;;;;;;;3.04;100.00;99286.16;4994397;28;20042;-66
2024/01/26 06:09:33;;;;;;;49.92;30.55;;;;;;;3.14;100.00;99286.50;5030158;28;20029;-78
2024/01/26 06:12:01;;;;;;;51.60;30.55;;;;;;;2.62;100.00;99238.69;4990926;28;20037;-71
2024/01/26 06:14:26;;;;;;;48.20;31.15;;;;;;;2.84;100.00;99313.72;5001567;28;20080;-67
2024/01/26 06:16:54;;;;;;;48.67;30.80;;;;;;;2.83;100.00;99312.06;5013076;28;20586;-71
2024/01/26 06:19:19;;;;;;;48.22;30.95;;;;;;;2.96;100.00;99314.84;4997950;28;20029;-71
2024/01/26 06:21:47;;;;;;;49.75;32.70;;;;;;;3.10;100.00;99316.66;4997945;28;20449;-73
2024/01/26 06:24:13;;;;;;;50.70;30.73;;;;;;;3.06;100.00;99316.00;5011468;28;21215;-68
2024/01/26 06:26:38;;;;;;;51.60;31.58;;;;;;;3.13;100.00;99326.78;5018911;28;20029;-70
2024/01/26 06:29:03;;;;;;;49.30;31.15;;;;;;;3.11;100.00;99330.38;5010213;28;20033;-71
2024/01/26 06:31:29;;;;;;;53.65;29.95;;;;;;;3.02;100.00;99331.66;4994979;28;20026;-74
2024/01/26 06:33:57;;;;;;;52.15;30.58;;;;;;;3.07;100.00;99333.09;5042313;28;20493;-76
2024/01/26 06:36:22;;;;;;;53.78;32.28;;;;;;;2.99;100.00;99332.63;5006286;28;20059;-72
2024/01/26 06:38:48;;;;;;;51.40;30.20;;;;;;;3.13;100.00;99341.41;5009543;28;20049;-72
2024/01/26 06:41:16;;;;;;;50.30;30.38;;;;;;;3.11;100.00;99340.66;4995321;28;20030;-68
2024/01/26 06:43:41;;;;;;;47.10;30.92;;;;;;;3.02;100.00;99345.34;5027186;28;20102;-69
2024/01/26 06:46:09;;;;;;;50.67;31.02;;;;;;;2.95;100.00;99356.00;4996201;28;20025;-71
2024/01/26 06:48:36;;;;;;;51.55;32.40;;;;;;;3.01;100.00;99358.25;4988414;28;20034;-71
2024/01/26 06:51:02;;;;;;;58.28;35.53;;;;;;;2.71;100.00;99309.28;5008720;28;20095;-70
2024/01/26 06:53:30;;;;;;;51.65;33.40;;;;;;;2.74;100.00;99342.50;5013773;28;20040;-72
2024/01/26 06:55:55;;;;;;;51.30;32.03;;;;;;;2.93;100.00;99366.38;4995965;28;20450;-70
2024/01/26 06:58:20;;;;;;;52.33;32.67;;;;;;;2.55;100.00;99292.06;5024987;28;20037;-73
2024/01/26 07:00:47;;;;;;;50.83;31.70;;;;;;;2.70;100.00;99328.97;5007589;28;20025;-77
2024/01/26 07:03:12;;;;;;;51.15;31.92;;;;;;;3.01;100.00;99381.38;5013607;28;20032;-67
2024/01/26 07:05:39;;;;;;;47.70;31.20;;;;;;;2.96;100.00;99379.06;5016663;28;20037;-70
2024/01/26 07:08:06;;;;;;;52.58;32.22;;;;;;;2.68;100.00;99344.50;5017848;28;20057;-69
2024/01/26 07:10:31;;;;;;;49.45;31.60;;;;;;;2.52;100.00;99332.47;4995336;28;20249;-75
2024/01/26 07:12:59;;;;;;;52.97;32.88;;;;;;;2.71;100.00;99358.91;5016898;28;20129;-74
2024/01/26 07:15:24;;;;;;;53.55;33.17;;;;;;;2.92;100.00;99389.56;5014853;28;20595;-70
2024/01/26 07:17:49;;;;;;;52.08;31.17;;;;;;;2.95;100.00;99391.97;5019782;28;20040;-70
2024/01/26 07:20:20;;;;;;;50.90;30.70;;;;;;;2.52;100.00;99328.19;5015511;28;20032;-73
2024/01/26 07:22:47;;;;;;;53.05;30.98;;;;;;;2.78;100.00;99375.69;5020994;28;20639;-74
2024/01/26 07:25:18;;;;;;;49.95;30.85;;;;;;;2.79;100.00;99385.06;5010006;28;20032;-71
2024/01/26 07:27:44;;;;;;;55.25;33.42;;;;;;;2.97;100.00;99392.72;5010614;28;20033;-71
2024/01/26 07:30:17;;;;;;;51.53;31.98;;;;;;;2.88;100.00;99387.16;4999602;28;20044;-73
2024/01/26 07:32:42;;;;;;;50.33;32.00;;;;;;;2.82;100.00;99390.03;5017254;28;20037;-72
2024/01/26 07:35:08;;;;;;;55.08;33.25;;;;;;;2.75;100.00;99396.38;5018743;28;20030;-72
2024/01/26 07:37:33;;;;;;;47.90;31.08;;;;;;;2.86;100.00;99390.69;5013608;28;20508;-77
2024/01/26 07:40:04;;;;;;;55.63;31.67;;;;;;;2.99;100.00;99406.31;5020366;28;20029;-72
2024/01/26 07:42:32;;;;;;;52.67;32.72;;;;;;;2.93;100.00;99394.63;5018288;28;20025;-69
2024/01/26 07:44:59;;;;;;;47.30;29.95;;;;;;;2.96;100.00;99399.63;5019440;28;20111;-69
2024/01/26 07:47:26;;;;;;;57.67;31.30;;;;;;;2.81;100.00;99395.22;5002408;28;20774;-71
2024/01/26 07:49:52;;;;;;;53.33;31.95;;;;;;;2.83;100.00;99398.53;4998290;28;20026;-73
2024/01/26 07:52:17;;;;;;;55.17;32.13;;;;;;;2.92;100.00;99399.84;5016329;28;20037;-71
2024/01/26 07:54:45;;;;;;;49.97;31.23;;;;;;;2.88;100.00;99392.31;5012149;28;20110;-71
2024/01/26 07:57:11;;;;;;;51.13;30.40;;;;;;;2.49;100.00;99357.41;4999012;28;20040;-72
2024/01/26 07:59:36;;;;;;;55.90;32.00;;;;;;;2.92;100.00;99430.66;5000138;28;20026;-71
2024/01/26 08:02:02;;;;;;;55.58;35.00;;;;;;;2.91;100.00;99441.88;5015185;28;20116;-76
2024/01/26 08:04:29;;;;;;;56.60;34.33;;;;;;;2.89;100.00;99447.88;5000071;28;20068;-66
2024/01/26 08:06:57;;;;;;;51.78;32.10;;;;;;;2.75;100.00;99462.31;5018574;28;20028;-67
2024/01/26 08:09:22;;;;;;;50.22;30.75;;;;;;;2.88;100.00;99453.94;5018856;28;20025;-70
2024/01/26 08:11:50;;;;;;;51.25;31.38;;;;;;;2.95;100.00;99444.19;5013545;28;20625;-70
2024/01/26 08:14:15;;;;;;;55.20;32.58;;;;;;;2.69;100.00;99394.13;5015609;28;20036;-76
2024/01/26 08:16:41;;;;;;;56.88;32.40;;;;;;;2.78;100.00;99385.94;4999631;28;20113;-69
2024/01/26 08:19:06;;;;;;;51.03;31.67;;;;;;;3.11;100.00;99431.41;5022505;28;20656;-67
2024/01/26 08:21:31;;;;;;;49.47;31.08;;;;;;;3.13;100.00;99427.03;4999644;28;20033;-70
2024/01/26 08:23:57;;;;;;;53.33;32.05;;;;;;;3.23;100.00;99433.38;5018061;28;20817;-72
2024/01/26 08:26:22;;;;;;;57.22;32.35;;;;;;;3.24;100.00;99409.31;5013742;28;20045;-78
2024/01/26 08:28:48;;;;;;;49.85;32.03;;;;;;;3.18;100.00;99413.94;5016490;28;20051;-73
2024/01/26 08:31:19;;;;;;;45.22;30.77;;;;;;;3.25;100.00;99430.72;5016564;28;20025;-71
2024/01/26 08:33:44;;;;;;;53.55;31.23;;;;;;;3.21;100.00;99424.91;5012576;28;20140;-73
2024/01/26 08:36:11;;;;;;;53.05;32.03;;;;;;;3.22;100.00;99412.88;5017550;28;20128;-71
2024/01/26 08:38:36;;;;;;;54.60;31.88;;;;;;;2.96;100.00;99363.66;5032209;28;20057;-66
2024/01/26 08:41:08;;;;;;;54.40;33.13;;;;;;;3.14;100.00;99432.97;5015381;28;20471;-65
2024/01/26 08:43:34;;;;;;;51.08;31.35;;;;;;;3.18;100.00;99429.38;5015185;28;20024;-67
2024/01/26 08:45:59;;;;;;;56.63;33.08;;;;;;;3.21;100.00;99421.50;5012584;28;20033;-72
2024/01/26 08:48:25;;;;;;;56.70;34.00;;;;;;;3.28;100.00;99438.25;4998112;28;20037;-70
2024/01/26 08:50:53;;;;;;;56.13;33.75;;;;;;;3.35;100.00;99441.34;5015062;28;20538;-69
2024/01/26 08:53:21;;;;;;;56.53;36.88;;;;;;;3.11;100.00;99400.56;5011466;28;20045;-72
2024/01/26 08:55:49;;;;;;;56.55;36.22;;;;;;;3.41;100.00;99448.75;5016839;28;20060;-68
2024/01/26 08:58:15;;;;;;;59.20;36.28;;;;;;;3.38;100.00;99438.63;4994565;28;20794;-69
2024/01/26 09:00:45;;;;;;;58.97;36.70;;;;;;;3.47;100.00;99440.72;5020858;28;20040;-70
2024/01/26 09:03:14;;;;;;;65.32;39.80;;;;;;;3.04;100.00;99391.50;5011430;28;20018;-68
2024/01/26 09:05:44;;;;;;;67.88;40.47;;;;;;;3.51;100.00;99447.38;5014822;28;20108;-69
2024/01/26 09:08:12;;;;;;;66.38;40.72;;;;;;;3.21;100.00;99393.22;5027428;28;20041;-67
2024/01/26 09:10:40;;;;;;;63.65;40.28;;;;;;;3.52;100.00;99443.88;5017620;28;20034;-64
2024/01/26 09:13:05;;;;;;;64.38;40.58;;;;;;;3.61;100.00;99440.00;5003275;28;20965;-74
2024/01/26 09:15:30;;;;;;;65.95;41.58;;;;;;;3.66;100.00;99451.69;4995267;28;20035;-69
2024/01/26 09:17:56;;;;;;;69.45;42.17;;;;;;;3.55;100.00;99445.47;5018104;28;20056;-71
2024/01/26 09:20:24;;;;;;;65.72;39.55;;;;;;;3.56;100.00;99447.13;5016288;28;20187;-72
2024/01/26 09:22:49;;;;;;;65.78;40.30;;;;;;;3.73;100.00;99451.41;5002949;28;20034;-70
2024/01/26 09:25:14;;;;;;;63.92;39.88;;;;;;;3.53;100.00;99411.28;5001945;28;20048;-75
2024/01/26 09:27:40;;;;;;;62.65;38.97;;;;;;;3.72;100.00;99442.00;4997527;28;20116;-66
2024/01/26 09:30:09;;;;;;;59.08;36.25;;;;;;;3.78;100.00;99452.81;4996676;28;20029;-68
2024/01/26 09:32:34;;;;;;;63.92;36.80;;;;;;;3.84;100.00;99462.78;5029546;28;20102;-72
2024/01/26 09:35:03;;;;;;;55.95;36.08;;;;;;;3.91;100.00;99460.72;5012005;28;20021;-68
2024/01/26 09:37:29;;;;;;;54.13;34.53;;;;;;;4.03;100.00;99464.34;4994139;28;20045;-73
2024/01/26 09:39:57;;;;;;;56.40;35.78;;;;;;;3.93;100.00;99434.91;5040553;28;20396;-67
2024/01/26 09:42:23;;;;;;;56.50;35.90;;;;;;;4.06;100.00;99455.66;5014410;28;20068;-69
2024/01/26 09:44:48;;;;;;;51.45;34.40;;;;;;;4.15;100.00;99466.28;4997691;28;20041;-71
2024/01/26 09:47:19;;;;;;;60.42;35.60;;;;;;;3.83;100.00;99419.97;5011247;28;20083;-72
2024/01/26 09:50:00;;;;;;;57.38;35.72;;;;;;;4.09;100.00;99473.50;4993559;28;20017;-69
2024/01/26 09:52:26;;;;;;;59.50;36.35;;;;;;;4.12;100.00;99479.31;4996380;28;20057;-76
2024/01/26 09:54:51;;;;;;;56.50;36.20;;;;;;;3.81;100.00;99426.91;4998999;28;20097;-70
2024/01/26 09:57:20;;;;;;;55.65;35.55;;;;;;;4.27;100.00;99490.53;5001464;28;20037;-69
2024/01/26 09:59:50;;;;;;;54.90;35.25;;;;;;;4.21;100.00;99488.28;5015002;28;20098;-73
2024/01/26 10:02:16;;;;;;;55.17;33.17;;;;;;;4.34;100.00;99493.59;5013441;28;20065;-76
2024/01/26 10:04:41;;;;;;;56.20;35.17;;;;;;;4.37;100.00;99472.84;4996617;28;20029;-70
2024/01/26 10:07:07;;;;;;;51.95;34.10;;;;;;;4.36;100.00;99460.88;5012535;28;20037;-69
2024/01/26 10:09:34;;;;;;;51.38;34.72;;;;;;;4.54;100.00;99495.91;5014549;28;20468;-66
2024/01/26 10:12:00;;;;;;;52.83;33.47;;;;;;;4.55;100.00;99496.75;4994810;28;20595;-68
2024/01/26 10:14:26;;;;;;;52.30;32.78;;;;;;;4.63;100.00;99495.41;4996808;28;20037;-73
2024/01/26 10:17:01;;;;;;;50.35;32.65;;;;;;;4.47;100.00;99442.25;5014637;28;20040;-72
2024/01/26 10:19:27;;;;;;;50.15;32.95;;;;;;;4.87;100.00;99507.00;4996015;28;20034;-65
2024/01/26 10:21:53;;;;;;;51.35;34.25;;;;;;;4.96;100.00;99506.47;4996146;28;20046;-69
2024/01/26 10:24:25;;;;;;;50.15;33.13;;;;;;;5.18;100.00;99512.09;5031514;28;20088;-71
2024/01/26 10:26:52;;;;;;;47.15;32.72;;;;;;;5.36;100.00;99504.19;5011520;28;20040;-67
2024/01/26 10:29:22;;;;;;;53.88;34.28;;;;;;;5.19;100.00;99428.63;5015990;28;20037;-65
2024/01/26 10:31:50;;;;;;;56.75;33.17;;;;;;;5.73;100.00;99483.94;4997441;28;20060;-70
2024/01/26 10:34:20;;;;;;;48.50;33.25;;;;;;;5.90;100.00;99482.94;5006272;28;20084;-69
2024/01/26 10:36:49;;;;;;;48.38;32.40;;;;;;;6.10;100.00;99481.75;5007076;28;20430;-72
2024/01/26 10:39:22;;;;;;;47.80;32.90;;;;;;;6.04;100.00;99482.09;4999444;28;20143;-65
2024/01/26 10:41:54;;;;;;;46.42;30.73;;;;;;;5.98;100.00;99485.88;5026843;28;20446;-67
2024/01/26 10:44:20;;;;;;;49.53;30.83;;;;;;;5.93;100.00;99470.66;5004561;28;20565;-66
2024/01/26 10:46:46;;;;;;;43.15;29.55;;;;;;;5.95;100.00;99471.44;5010205;28;20037;-69
2024/01/26 10:49:12;;;;;;;46.38;30.67;;;;;;;5.97;100.00;99472.16;4996944;28;20041;-65
2024/01/26 10:51:38;;;;;;;45.90;30.88;;;;;;;5.71;100.00;99421.25;5033008;28;20037;-68
2024/01/26 10:54:24;;;;;;;42.72;29.35;;;;;;;5.96;100.00;99469.66;5011227;28;20026;-68
2024/01/26 10:56:54;;;;;;;44.35;29.00;;;;;;;5.76;100.00;99425.22;4998733;28;20037;-70
2024/01/26 10:59:20;;;;;;;43.67;29.60;;;;;;;6.07;100.00;99464.66;5002805;28;20661;-68
2024/01/26 11:01:46;;;;;;;45.00;27.40;;;;;;;6.26;100.00;99469.53;5009393;28;20033;-72
2024/01/26 11:04:15;;;;;;;41.80;27.98;;;;;;;6.33;100.00;99470.81;5011005;28;20041;-66
2024/01/26 11:06:41;;;;;;;42.47;29.70;;;;;;;6.36;100.00;99472.34;5010368;28;20040;-74
2024/01/26 11:09:10;;;;;;;49.42;33.55;;;;;;;6.41;100.00;99478.06;5016760;28;20336;-68
2024/01/26 11:11:37;;;;;;;47.60;32.00;;;;;;;6.21;100.00;99414.75;5013675;28;20045;-67
2024/01/26 11:14:03;;;;;;;45.58;32.13;;;;;;;6.52;100.00;99451.53;5002239;28;20995;-71
2024/01/26 11:16:37;;;;;;;47.03;30.95;;;;;;;6.64;100.00;99463.66;5011201;28;20029;-68